createdAt,value
2023-01-28T00:03:40.039Z,1.26
2023-01-28T00:08:42.942Z,1.24
2023-01-28T00:13:47.064Z,1.09
2023-01-28T00:18:51.755Z,1.25
2023-01-28T00:23:56.833Z,1.28
2023-01-28T00:29:01.102Z,1.18
2023-01-28T00:34:03.980Z,1.05
2023-01-28T00:39:08.249Z,1.18
2023-01-28T00:44:12.605Z,1.09
2023-01-28T00:49:15.530Z,0.98
2023-01-28T00:54:18.521Z,1.02
2023-01-28T00:59:22.716Z,0.94
2023-01-28T01:04:27.434Z,1.10
2023-01-28T01:09:30.212Z,1.04
2023-01-28T01:14:34.411Z,1.00
2023-01-28T01:19:38.254Z,1.01
2023-01-28T01:24:41.060Z,0.57
2023-01-28T01:29:45.237Z,0.49
2023-01-28T01:34:47.993Z,0.37
2023-01-28T01:39:50.738Z,0.51
2023-01-28T01:44:57.995Z,0.61
2023-01-28T01:50:03.007Z,0.46
2023-01-28T01:55:09.917Z,0.51
2023-01-28T02:00:14.866Z,0.22
2023-01-28T02:05:19.522Z,0.53
2023-01-28T02:10:23.072Z,0.17
2023-01-28T02:15:27.304Z,0.31
2023-01-28T02:20:42.496Z,0.08
2023-01-28T02:26:14.403Z,0.14
2023-01-28T02:31:20.823Z,0.26
2023-01-28T02:36:29.554Z,0.18
2023-01-28T02:41:34.656Z,0.31
2023-01-28T02:46:56.688Z,0.26
2023-01-28T02:52:18.382Z,0.09
2023-01-28T02:57:30.536Z,0.32
2023-01-28T03:02:38.418Z,-0.04
2023-01-28T03:07:41.919Z,0.24
2023-01-28T03:13:03.260Z,0.04
2023-01-28T03:18:26.904Z,0.09
2023-01-28T03:23:51.790Z,0.25
2023-01-28T03:29:13.740Z,0.27
2023-01-28T03:34:36.439Z,0.30
2023-01-28T03:39:39.647Z,0.04
2023-01-28T03:44:51.769Z,-0.04
2023-01-28T03:49:59.535Z,0.17
2023-01-28T03:55:14.266Z,-0.11
2023-01-28T04:00:20.411Z,-0.16
2023-01-28T04:05:25.442Z,-0.02
2023-01-28T04:10:29.295Z,-0.20
2023-01-28T04:15:46.381Z,-0.27
2023-01-28T04:20:52.043Z,-0.26
2023-01-28T04:25:54.975Z,-0.11
2023-01-28T04:31:00.125Z,0.07
2023-01-28T04:36:19.545Z,-0.24
2023-01-28T04:41:41.072Z,-0.15
2023-01-28T04:46:52.701Z,-0.21
2023-01-28T04:52:15.189Z,-0.08
2023-01-28T04:57:34.245Z,-0.34
2023-01-28T05:02:37.231Z,-0.13
2023-01-28T05:07:41.367Z,-0.30
2023-01-28T05:12:45.228Z,-0.29
2023-01-28T05:17:48.625Z,-0.05
2023-01-28T05:22:55.871Z,-0.20
2023-01-28T05:28:01.825Z,-0.19
2023-01-28T05:33:04.774Z,-0.03
2023-01-28T05:38:09.080Z,-0.23
2023-01-28T05:43:11.864Z,-0.20
2023-01-28T05:48:19.956Z,-0.37
2023-01-28T05:53:49.813Z,-0.19
2023-01-28T05:58:52.499Z,-0.25
2023-01-28T06:03:55.483Z,-0.35
2023-01-28T06:08:59.764Z,-0.30
2023-01-28T06:14:05.878Z,-0.41
2023-01-28T06:19:23.642Z,-0.28
2023-01-28T06:24:27.888Z,-0.47
2023-01-28T06:29:30.723Z,-0.49
2023-01-28T06:34:33.769Z,-0.41
2023-01-28T06:39:38.969Z,-0.49
2023-01-28T06:44:41.713Z,-0.32
2023-01-28T06:49:44.398Z,-0.13
2023-01-28T06:54:48.832Z,-0.18
2023-01-28T06:59:51.544Z,-0.21
2023-01-28T07:04:54.277Z,-0.46
2023-01-28T07:09:58.347Z,-0.24
2023-01-28T07:15:01.110Z,-0.28
2023-01-28T07:20:05.215Z,-0.46
2023-01-28T07:25:10.505Z,-0.53
2023-01-28T07:30:14.217Z,-0.38
2023-01-28T07:35:17.398Z,-0.56
2023-01-28T07:40:21.832Z,-0.38
2023-01-28T07:45:25.103Z,-0.49
2023-01-28T07:50:29.074Z,-0.23
2023-01-28T07:55:35.796Z,-0.10
2023-01-28T08:00:39.168Z,-0.06
2023-01-28T08:05:44.205Z,-0.37
2023-01-28T08:10:49.317Z,-0.11
2023-01-28T08:15:56.456Z,-0.10
2023-01-28T08:21:00.223Z,-0.03
2023-01-28T08:26:04.275Z,-0.09
2023-01-28T08:31:07.059Z,-0.04
2023-01-28T08:36:10.459Z,-0.01
2023-01-28T08:41:14.534Z,-0.02
2023-01-28T08:46:17.544Z,0.14
2023-01-28T08:51:20.207Z,0.15
2023-01-28T08:56:24.302Z,0.29
2023-01-28T09:01:29.309Z,0.00
2023-01-28T09:06:32.201Z,0.18
2023-01-28T09:11:36.323Z,0.20
2023-01-28T09:16:39.033Z,0.65
2023-01-28T09:21:41.838Z,0.02
2023-01-28T09:26:45.897Z,0.45
2023-01-28T09:31:48.627Z,0.20
2023-01-28T09:36:51.359Z,0.10
2023-01-28T09:42:02.817Z,-0.08
2023-01-28T09:47:12.881Z,-0.15
2023-01-28T09:52:17.191Z,-0.01
2023-01-28T09:57:24.911Z,-0.05
2023-01-28T10:02:38.765Z,0.05
2023-01-28T10:07:46.295Z,-0.06
2023-01-28T10:13:15.391Z,0.07
2023-01-28T10:18:22.718Z,0.01
2023-01-28T10:23:29.315Z,0.11
2023-01-28T10:28:37.063Z,-0.04
2023-01-28T10:33:40.196Z,0.08
2023-01-28T10:38:43.264Z,-0.21
2023-01-28T10:43:47.479Z,0.05
2023-01-28T10:48:56.208Z,0.16
2023-01-28T10:53:58.950Z,-0.11
2023-01-28T10:59:04.847Z,0.23
2023-01-28T11:04:14.209Z,-0.05
2023-01-28T11:09:24.981Z,0.13
2023-01-28T11:14:29.057Z,-0.16
2023-01-28T11:19:37.235Z,-0.06
2023-01-28T11:24:39.975Z,0.04
2023-01-28T11:29:44.262Z,-0.14
2023-01-28T11:34:51.869Z,0.12
2023-01-28T11:40:11.285Z,0.05
2023-01-28T11:45:18.399Z,-0.03
2023-01-28T11:50:30.221Z,0.04
2023-01-28T11:55:41.383Z,0.21
2023-01-28T12:00:53.713Z,0.39
2023-01-28T12:05:58.207Z,0.44
2023-01-28T12:11:19.091Z,0.58
2023-01-28T12:16:49.593Z,0.23
2023-01-28T12:22:06.453Z,0.49
2023-01-28T12:27:13.724Z,1.04
2023-01-28T12:32:39.085Z,0.94
2023-01-28T12:37:53.909Z,1.23
2023-01-28T12:42:59.053Z,1.20
2023-01-28T12:48:12.454Z,1.51
2023-01-28T12:53:24.173Z,1.37
2023-01-28T12:58:37.852Z,1.01
2023-01-28T13:03:47.004Z,1.36
2023-01-28T13:08:51.140Z,1.61
2023-01-28T13:13:54.039Z,1.75
2023-01-28T13:19:08.823Z,1.26
2023-01-28T13:24:32.684Z,1.40
2023-01-28T13:29:35.429Z,1.16
2023-01-28T13:34:43.546Z,1.21
2023-01-28T13:39:51.352Z,1.57
2023-01-28T13:44:54.734Z,1.33
2023-01-28T13:50:01.435Z,1.21
2023-01-28T13:55:07.799Z,0.90
2023-01-28T14:00:21.587Z,0.84
2023-01-28T14:06:02.845Z,0.62
2023-01-28T14:11:16.276Z,0.37
2023-01-28T14:16:28.231Z,0.39
2023-01-28T14:21:35.598Z,0.91
2023-01-28T14:26:48.186Z,0.99
2023-01-28T14:31:52.157Z,1.00
2023-01-28T14:36:57.950Z,1.05
2023-01-28T14:42:02.702Z,1.29
2023-01-28T14:47:20.455Z,1.00
2023-01-28T14:52:46.256Z,0.66
2023-01-28T14:57:53.421Z,0.54
2023-01-28T15:02:56.231Z,0.81
2023-01-28T15:08:00.667Z,0.69
2023-01-28T15:13:07.255Z,0.80
2023-01-28T15:18:15.277Z,0.55
2023-01-28T15:23:28.476Z,0.69
2023-01-28T15:28:32.553Z,0.45
2023-01-28T15:33:35.229Z,0.40
2023-01-28T15:38:39.322Z,0.36
2023-01-28T15:43:42.066Z,0.41
2023-01-28T15:48:46.993Z,0.34
2023-01-28T15:53:52.455Z,0.22
2023-01-28T15:58:56.143Z,0.25
2023-01-28T16:04:03.566Z,0.16
2023-01-28T16:09:12.846Z,0.09
2023-01-28T16:14:24.360Z,-0.02
2023-01-28T16:19:33.375Z,-0.27
2023-01-28T16:24:37.603Z,-0.33
2023-01-28T16:29:40.657Z,-0.31
2023-01-28T16:34:44.681Z,-0.35
2023-01-28T16:39:49.407Z,-0.36
2023-01-28T16:44:53.150Z,-0.31
2023-01-28T16:49:55.967Z,-0.12
2023-01-28T16:55:00.145Z,-0.20
2023-01-28T17:00:02.865Z,-0.28
2023-01-28T17:05:06.182Z,-0.24
2023-01-28T17:10:12.312Z,-0.38
2023-01-28T17:15:15.662Z,-0.40
2023-01-28T17:20:18.898Z,-0.39
2023-01-28T17:25:22.936Z,-0.55
2023-01-28T17:30:25.586Z,-0.58
2023-01-28T17:35:28.742Z,-0.58
2023-01-28T17:40:32.847Z,-0.57
2023-01-28T17:45:35.626Z,-0.78
2023-01-28T17:50:39.723Z,-0.68
2023-01-28T17:55:43.774Z,-0.64
2023-01-28T18:00:46.481Z,-0.86
2023-01-28T18:05:57.881Z,-0.87
2023-01-28T18:11:02.921Z,-1.02
2023-01-28T18:16:07.529Z,-0.90
2023-01-28T18:21:20.950Z,-0.96
2023-01-28T18:26:24.998Z,-0.99
2023-01-28T18:31:27.888Z,-0.94
2023-01-28T18:36:30.648Z,-1.20
2023-01-28T18:41:34.677Z,-1.21
2023-01-28T18:46:37.442Z,-1.06
2023-01-28T18:51:40.141Z,-1.15
2023-01-28T18:56:44.831Z,-1.26
2023-01-28T19:01:47.910Z,-1.20
2023-01-28T19:06:50.790Z,-1.31
2023-01-28T19:11:54.812Z,-1.30
2023-01-28T19:16:57.492Z,-1.37
2023-01-28T19:22:00.186Z,-1.32
2023-01-28T19:27:04.321Z,-1.42
2023-01-28T19:32:07.076Z,-1.53
2023-01-28T19:37:09.979Z,-1.62
2023-01-28T19:42:14.078Z,-1.54
2023-01-28T19:47:16.794Z,-1.61
2023-01-28T19:52:19.476Z,-1.67
2023-01-28T19:57:23.539Z,-1.62
2023-01-28T20:02:27.704Z,-1.76
2023-01-28T20:07:30.432Z,-1.64
2023-01-28T20:12:34.475Z,-1.71
2023-01-28T20:17:37.281Z,-1.75
2023-01-28T20:22:41.247Z,-1.75
2023-01-28T20:27:45.290Z,-1.75
2023-01-28T20:32:47.969Z,-1.84
2023-01-28T20:37:50.661Z,-1.75
2023-01-28T20:42:54.693Z,-1.68
2023-01-28T20:47:57.431Z,-1.79
2023-01-28T20:53:00.116Z,-1.68
2023-01-28T20:58:05.266Z,-1.64
2023-01-28T21:03:07.969Z,-1.86
2023-01-28T21:08:10.679Z,-1.80
2023-01-28T21:13:15.735Z,-1.94
2023-01-28T21:18:18.422Z,-1.92
2023-01-28T21:23:21.728Z,-1.94
2023-01-28T21:28:26.832Z,-1.96
2023-01-28T21:33:29.529Z,-1.95
2023-01-28T21:38:32.191Z,-2.01
2023-01-28T21:43:36.893Z,-2.12
2023-01-28T21:48:39.549Z,-2.10
2023-01-28T21:53:43.026Z,-2.18
2023-01-28T21:59:04.635Z,-2.22
2023-01-28T22:04:07.363Z,-2.17
2023-01-28T22:09:11.757Z,-2.20
2023-01-28T22:14:16.243Z,-2.36
2023-01-28T22:19:18.998Z,-2.32
2023-01-28T22:24:24.239Z,-2.32
2023-01-28T22:29:28.671Z,-2.42
2023-01-28T22:34:31.498Z,-2.37
2023-01-28T22:39:34.151Z,-2.49
2023-01-28T22:44:38.186Z,-2.49
2023-01-28T22:49:40.843Z,-2.47
2023-01-28T22:54:43.479Z,-2.44
2023-01-28T22:59:59.623Z,-2.37
2023-01-28T23:05:03.238Z,-2.29
2023-01-28T23:10:07.017Z,-2.30
2023-01-28T23:15:28.953Z,-2.31
2023-01-28T23:20:49.460Z,-2.27
2023-01-28T23:25:52.186Z,-2.18
2023-01-28T23:30:56.417Z,-2.33
2023-01-28T23:35:59.555Z,-2.34
2023-01-28T23:41:02.536Z,-2.29
2023-01-28T23:46:06.736Z,-2.26
2023-01-28T23:51:09.816Z,-2.26
2023-01-28T23:56:12.742Z,-2.28
